sensor_id;sensor_type;location;lat;lon;timestamp;pressure;altitude;pressure_sealevel;temperature;humidity
81025;BME280;70500;50.292;6.666;2023-09-12T00:00:11;96173.00;;;26.66;55.15
81025;BME280;70500;50.292;6.666;2023-09-12T00:02:40;96168.78;;;26.65;55.26
81025;BME280;70500;50.292;6.666;2023-09-12T00:05:09;96162.50;;;26.64;55.31
81025;BME280;70500;50.292;6.666;2023-09-12T00:07:39;96168.03;;;26.64;54.96
81025;BME280;70500;50.292;6.666;2023-09-12T00:10:09;96168.78;;;26.65;54.63
81025;BME280;70500;50.292;6.666;2023-09-12T00:12:38;96174.09;;;26.63;55.09
81025;BME280;70500;50.292;6.666;2023-09-12T00:15:08;96179.59;;;26.63;54.86
81025;BME280;70500;50.292;6.666;2023-09-12T00:17:38;96178.84;;;26.62;55.27
81025;BME280;70500;50.292;6.666;2023-09-12T00:20:08;96189.91;;;26.62;55.12
81025;BME280;70500;50.292;6.666;2023-09-12T00:22:37;96183.63;;;26.62;55.28
81025;BME280;70500;50.292;6.666;2023-09-12T00:25:07;96178.13;;;26.62;55.21
81025;BME280;70500;50.292;6.666;2023-09-12T00:27:36;96182.16;;;26.61;54.85
81025;BME280;70500;50.292;6.666;2023-09-12T00:30:06;96169.09;;;26.61;54.87
81025;BME280;70500;50.292;6.666;2023-09-12T00:32:35;96168.34;;;26.61;55.36
81025;BME280;70500;50.292;6.666;2023-09-12T00:35:06;96166.34;;;26.61;55.09
81025;BME280;70500;50.292;6.666;2023-09-12T00:37:36;96167.06;;;26.62;55.02
81025;BME280;70500;50.292;6.666;2023-09-12T00:40:06;96173.34;;;26.62;54.91
81025;BME280;70500;50.292;6.666;2023-09-12T00:42:35;96166.34;;;26.61;54.95
81025;BME280;70500;50.292;6.666;2023-09-12T00:45:04;96162.81;;;26.61;55.55
81025;BME280;70500;50.292;6.666;2023-09-12T00:47:35;96155.81;;;26.60;55.19
81025;BME280;70500;50.292;6.666;2023-09-12T00:50:08;96153.06;;;26.60;55.40
81025;BME280;70500;50.292;6.666;2023-09-12T00:52:39;96152.00;;;26.63;55.33
81025;BME280;70500;50.292;6.666;2023-09-12T00:55:09;96152.53;;;26.61;55.97
81025;BME280;70500;50.292;6.666;2023-09-12T00:57:38;96149.75;;;26.61;56.03
81025;BME280;70500;50.292;6.666;2023-09-12T01:00:12;96142.03;;;26.60;55.67
81025;BME280;70500;50.292;6.666;2023-09-12T01:02:43;96139.78;;;26.58;56.08
81025;BME280;70500;50.292;6.666;2023-09-12T01:05:15;96139.06;;;26.58;55.81
81025;BME280;70500;50.292;6.666;2023-09-12T01:07:44;96143.84;;;26.57;56.00
81025;BME280;70500;50.292;6.666;2023-09-12T01:10:14;96134.84;;;26.57;55.78
81025;BME280;70500;50.292;6.666;2023-09-12T01:12:44;96121.78;;;26.57;56.18
81025;BME280;70500;50.292;6.666;2023-09-12T01:15:13;96122.84;;;26.54;55.68
81025;BME280;70500;50.292;6.666;2023-09-12T01:17:43;96118.19;;;26.49;55.50
81025;BME280;70500;50.292;6.666;2023-09-12T01:20:25;96115.94;;;26.48;55.62
81025;BME280;70500;50.292;6.666;2023-09-12T01:23:11;96109.69;;;26.47;55.43
81025;BME280;70500;50.292;6.666;2023-09-12T01:26:17;96109.69;;;26.47;55.34
81025;BME280;70500;50.292;6.666;2023-09-12T01:28:55;96108.72;;;26.45;55.31
81025;BME280;70500;50.292;6.666;2023-09-12T01:31:27;96107.25;;;26.44;55.46
81025;BME280;70500;50.292;6.666;2023-09-12T01:33:57;96105.75;;;26.43;55.64
81025;BME280;70500;50.292;6.666;2023-09-12T01:36:27;96095.25;;;26.41;55.19
81025;BME280;70500;50.292;6.666;2023-09-12T01:38:56;96101.53;;;26.41;55.14
81025;BME280;70500;50.292;6.666;2023-09-12T01:41:26;96105.56;;;26.40;54.97
81025;BME280;70500;50.292;6.666;2023-09-12T01:44:02;96099.09;;;26.38;54.34
81025;BME280;70500;50.292;6.666;2023-09-12T01:46:34;96090.00;;;26.30;54.16
81025;BME280;70500;50.292;6.666;2023-09-12T01:49:05;96097.31;;;26.27;54.94
81025;BME280;70500;50.292;6.666;2023-09-12T01:51:35;96101.56;;;26.28;55.20
81025;BME280;70500;50.292;6.666;2023-09-12T01:54:07;96099.00;;;26.30;54.97
81025;BME280;70500;50.292;6.666;2023-09-12T01:56:38;96104.75;;;26.32;54.98
81025;BME280;70500;50.292;6.666;2023-09-12T01:59:09;96107.50;;;26.32;54.97
81025;BME280;70500;50.292;6.666;2023-09-12T02:01:38;96112.28;;;26.32;54.68
81025;BME280;70500;50.292;6.666;2023-09-12T02:04:07;96092.97;;;26.32;54.61
81025;BME280;70500;50.292;6.666;2023-09-12T02:06:37;96101.97;;;26.32;54.87
81025;BME280;70500;50.292;6.666;2023-09-12T02:09:06;96107.28;;;26.30;54.92
81025;BME280;70500;50.292;6.666;2023-09-12T02:11:35;96103.03;;;26.29;54.75
81025;BME280;70500;50.292;6.666;2023-09-12T02:14:04;96111.31;;;26.29;54.44
81025;BME280;70500;50.292;6.666;2023-09-12T02:16:36;96110.59;;;26.29;54.43
81025;BME280;70500;50.292;6.666;2023-09-12T02:19:10;96115.34;;;26.28;54.82
81025;BME280;70500;50.292;6.666;2023-09-12T02:21:39;96110.38;;;26.27;54.66
81025;BME280;70500;50.292;6.666;2023-09-12T02:24:09;96110.16;;;26.25;54.97
81025;BME280;70500;50.292;6.666;2023-09-12T02:26:39;96108.16;;;26.25;54.65
81025;BME280;70500;50.292;6.666;2023-09-12T02:29:08;96110.16;;;26.25;54.97
81025;BME280;70500;50.292;6.666;2023-09-12T02:31:39;96105.38;;;26.25;54.66
81025;BME280;70500;50.292;6.666;2023-09-12T02:34:08;96094.13;;;26.23;54.63
81025;BME280;70500;50.292;6.666;2023-09-12T02:36:37;96098.16;;;26.22;54.85
81025;BME280;70500;50.292;6.666;2023-09-12T02:39:06;96100.94;;;26.22;54.75
81025;BME280;70500;50.292;6.666;2023-09-12T02:41:35;96096.66;;;26.21;54.99
81025;BME280;70500;50.292;6.666;2023-09-12T02:44:05;96086.91;;;26.20;54.75
81025;BME280;70500;50.292;6.666;2023-09-12T02:46:36;96092.41;;;26.20;54.70
81025;BME280;70500;50.292;6.666;2023-09-12T02:49:06;96097.75;;;26.18;54.72
81025;BME280;70500;50.292;6.666;2023-09-12T02:51:38;96095.72;;;26.19;54.83
81025;BME280;70500;50.292;6.666;2023-09-12T02:54:07;96105.28;;;26.18;54.64
81025;BME280;70500;50.292;6.666;2023-09-12T02:56:37;96104.53;;;26.17;54.78
81025;BME280;70500;50.292;6.666;2023-09-12T02:59:06;96105.81;;;26.16;54.99
81025;BME280;70500;50.292;6.666;2023-09-12T03:01:35;96104.31;;;26.15;54.85
81025;BME280;70500;50.292;6.666;2023-09-12T03:04:06;96100.81;;;26.15;54.81
81025;BME280;70500;50.292;6.666;2023-09-12T03:06:35;96094.56;;;26.14;54.73
81025;BME280;70500;50.292;6.666;2023-09-12T03:09:05;96091.06;;;26.14;54.83
81025;BME280;70500;50.292;6.666;2023-09-12T03:11:35;96091.59;;;26.12;54.86
81025;BME280;70500;50.292;6.666;2023-09-12T03:14:04;96090.13;;;26.11;54.92
81025;BME280;70500;50.292;6.666;2023-09-12T03:16:34;96094.88;;;26.11;54.91
81025;BME280;70500;50.292;6.666;2023-09-12T03:19:05;96090.66;;;26.10;54.74
81025;BME280;70500;50.292;6.666;2023-09-12T03:21:35;96098.91;;;26.10;54.99
81025;BME280;70500;50.292;6.666;2023-09-12T03:24:05;96100.72;;;26.07;55.00
81025;BME280;70500;50.292;6.666;2023-09-12T03:26:35;96110.47;;;26.08;55.17
81025;BME280;70500;50.292;6.666;2023-09-12T03:29:05;96104.97;;;26.08;54.81
81025;BME280;70500;50.292;6.666;2023-09-12T03:31:35;96099.97;;;26.06;54.83
81025;BME280;70500;50.292;6.666;2023-09-12T03:34:06;96077.69;;;26.04;54.86
81025;BME280;70500;50.292;6.666;2023-09-12T03:36:38;96067.94;;;26.03;55.11
81025;BME280;70500;50.292;6.666;2023-09-12T03:39:07;96067.19;;;26.03;54.96
81025;BME280;70500;50.292;6.666;2023-09-12T03:41:37;96082.25;;;26.02;55.05
81025;BME280;70500;50.292;6.666;2023-09-12T03:44:06;96083.00;;;26.02;54.92
81025;BME280;70500;50.292;6.666;2023-09-12T03:46:36;96087.59;;;26.00;54.84
81025;BME280;70500;50.292;6.666;2023-09-12T03:49:07;96091.63;;;25.99;54.96
81025;BME280;70500;50.292;6.666;2023-09-12T03:51:36;96089.59;;;25.99;55.11
81025;BME280;70500;50.292;6.666;2023-09-12T03:54:06;96082.78;;;26.00;55.07
81025;BME280;70500;50.292;6.666;2023-09-12T03:56:35;96083.34;;;25.99;55.02
81025;BME280;70500;50.292;6.666;2023-09-12T03:59:04;96071.59;;;25.98;54.93
81025;BME280;70500;50.292;6.666;2023-09-12T04:01:35;96069.34;;;25.97;55.15
81025;BME280;70500;50.292;6.666;2023-09-12T04:04:04;96076.88;;;25.96;54.87
81025;BME280;70500;50.292;6.666;2023-09-12T04:06:35;96077.41;;;25.95;54.85
81025;BME280;70500;50.292;6.666;2023-09-12T04:09:04;96066.38;;;25.95;54.79
81025;BME280;70500;50.292;6.666;2023-09-12T04:11:34;96065.63;;;25.94;55.04
81025;BME280;70500;50.292;6.666;2023-09-12T04:14:14;96066.16;;;25.93;55.17
81025;BME280;70500;50.292;6.666;2023-09-12T04:16:43;96067.66;;;25.94;54.96
81025;BME280;70500;50.292;6.666;2023-09-12T04:19:13;96064.69;;;25.92;55.33
81025;BME280;70500;50.292;6.666;2023-09-12T04:21:44;96063.19;;;25.91;55.00
81025;BME280;70500;50.292;6.666;2023-09-12T04:24:13;96068.94;;;25.93;54.94
81025;BME280;70500;50.292;6.666;2023-09-12T04:26:43;96065.97;;;25.91;55.25
81025;BME280;70500;50.292;6.666;2023-09-12T04:29:12;96057.47;;;25.89;55.00
81025;BME280;70500;50.292;6.666;2023-09-12T04:31:42;96061.72;;;25.90;55.32
81025;BME280;70500;50.292;6.666;2023-09-12T04:34:11;96063.72;;;25.89;55.00
81025;BME280;70500;50.292;6.666;2023-09-12T04:36:40;96063.00;;;25.89;54.88
81025;BME280;70500;50.292;6.666;2023-09-12T04:39:10;96066.28;;;25.87;55.16
81025;BME280;70500;50.292;6.666;2023-09-12T04:41:41;96058.00;;;25.87;55.03
81025;BME280;70500;50.292;6.666;2023-09-12T04:44:10;96057.25;;;25.87;54.98
81025;BME280;70500;50.292;6.666;2023-09-12T04:46:39;96061.28;;;25.86;54.91
81025;BME280;70500;50.292;6.666;2023-09-12T04:49:11;96053.03;;;25.86;55.03
81025;BME280;70500;50.292;6.666;2023-09-12T04:51:40;96054.28;;;25.85;55.00
81025;BME280;70500;50.292;6.666;2023-09-12T04:54:12;96057.78;;;25.85;55.00
81025;BME280;70500;50.292;6.666;2023-09-12T04:56:41;96061.06;;;25.84;54.94
81025;BME280;70500;50.292;6.666;2023-09-12T04:59:10;96066.59;;;25.84;54.90
81025;BME280;70500;50.292;6.666;2023-09-12T05:01:39;96062.34;;;25.83;55.04
81025;BME280;70500;50.292;6.666;2023-09-12T05:04:08;96068.59;;;25.83;55.03
81025;BME280;70500;50.292;6.666;2023-09-12T05:06:38;96062.88;;;25.81;55.05
81025;BME280;70500;50.292;6.666;2023-09-12T05:09:08;96078.16;;;25.82;55.09
81025;BME280;70500;50.292;6.666;2023-09-12T05:11:40;96086.97;;;25.81;55.15
81025;BME280;70500;50.292;6.666;2023-09-12T05:14:09;96093.94;;;25.82;55.06
81025;BME280;70500;50.292;6.666;2023-09-12T05:16:38;96088.44;;;25.82;55.25
81025;BME280;70500;50.292;6.666;2023-09-12T05:19:08;96082.75;;;25.80;55.08
81025;BME280;70500;50.292;6.666;2023-09-12T05:21:37;96085.50;;;25.80;55.17
81025;BME280;70500;50.292;6.666;2023-09-12T05:24:06;96083.25;;;25.78;55.00
81025;BME280;70500;50.292;6.666;2023-09-12T05:26:35;96082.75;;;25.80;54.98
81025;BME280;70500;50.292;6.666;2023-09-12T05:29:06;96088.03;;;25.78;54.61
81025;BME280;70500;50.292;6.666;2023-09-12T05:31:35;96089.31;;;25.77;55.17
81025;BME280;70500;50.292;6.666;2023-09-12T05:34:05;96089.31;;;25.77;55.02
81025;BME280;70500;50.292;6.666;2023-09-12T05:36:34;96092.81;;;25.77;55.26
81025;BME280;70500;50.292;6.666;2023-09-12T05:39:03;96096.84;;;25.76;55.07
81025;BME280;70500;50.292;6.666;2023-09-12T05:41:33;96103.84;;;25.77;55.08
81025;BME280;70500;50.292;6.666;2023-09-12T05:44:02;96109.88;;;25.76;55.17
81025;BME280;70500;50.292;6.666;2023-09-12T05:46:33;96113.38;;;25.76;55.27
81025;BME280;70500;50.292;6.666;2023-09-12T05:49:02;96110.41;;;25.74;55.10
81025;BME280;70500;50.292;6.666;2023-09-12T05:51:32;96109.44;;;25.71;55.17
81025;BME280;70500;50.292;6.666;2023-09-12T05:54:01;96115.19;;;25.73;55.16
81025;BME280;70500;50.292;6.666;2023-09-12T05:56:31;96116.66;;;25.75;55.25
81025;BME280;70500;50.292;6.666;2023-09-12T05:59:00;96108.91;;;25.73;55.22
81025;BME280;70500;50.292;6.666;2023-09-12T06:01:30;96118.25;;;25.70;55.31
81025;BME280;70500;50.292;6.666;2023-09-12T06:04:01;96130.22;;;25.72;55.29
81025;BME280;70500;50.292;6.666;2023-09-12T06:06:31;96119.41;;;25.75;55.08
81025;BME280;70500;50.292;6.666;2023-09-12T06:09:00;96119.94;;;25.73;55.11
81025;BME280;70500;50.292;6.666;2023-09-12T06:11:30;96110.19;;;25.72;55.26
81025;BME280;70500;50.292;6.666;2023-09-12T06:13:59;96108.19;;;25.72;55.12
81025;BME280;70500;50.292;6.666;2023-09-12T06:16:28;96112.94;;;25.72;55.14
81025;BME280;70500;50.292;6.666;2023-09-12T06:18:58;96114.97;;;25.71;55.18
81025;BME280;70500;50.292;6.666;2023-09-12T06:21:28;96121.97;;;25.72;54.76
81025;BME280;70500;50.292;6.666;2023-09-12T06:24:11;96111.69;;;25.73;55.16
81025;BME280;70500;50.292;6.666;2023-09-12T06:26:41;96111.25;;;25.69;55.11
81025;BME280;70500;50.292;6.666;2023-09-12T06:29:11;96111.47;;;25.71;55.34
81025;BME280;70500;50.292;6.666;2023-09-12T06:31:41;96109.13;;;25.75;55.07
81025;BME280;70500;50.292;6.666;2023-09-12T06:34:11;96107.44;;;25.72;55.16
81025;BME280;70500;50.292;6.666;2023-09-12T06:36:41;96104.91;;;25.74;55.16
81025;BME280;70500;50.292;6.666;2023-09-12T06:39:13;96100.97;;;25.69;55.16
81025;BME280;70500;50.292;6.666;2023-09-12T06:41:42;96099.25;;;25.66;55.38
81025;BME280;70500;50.292;6.666;2023-09-12T06:44:11;96100.88;;;25.75;55.04
81025;BME280;70500;50.292;6.666;2023-09-12T06:46:40;96100.94;;;25.83;54.78
81025;BME280;70500;50.292;6.666;2023-09-12T06:49:09;96100.75;;;25.81;55.25
81025;BME280;70500;50.292;6.666;2023-09-12T06:51:38;96104.59;;;25.78;54.97
81025;BME280;70500;50.292;6.666;2023-09-12T06:54:09;96115.25;;;25.81;55.22
81025;BME280;70500;50.292;6.666;2023-09-12T06:56:38;96116.75;;;25.82;54.99
81025;BME280;70500;50.292;6.666;2023-09-12T06:59:10;96115.59;;;25.78;55.00
81025;BME280;70500;50.292;6.666;2023-09-12T07:01:40;96113.47;;;25.84;54.91
81025;BME280;70500;50.292;6.666;2023-09-12T07:04:09;96116.22;;;25.84;54.96
81025;BME280;70500;50.292;6.666;2023-09-12T07:06:38;96119.50;;;25.82;54.95
81025;BME280;70500;50.292;6.666;2023-09-12T07:09:07;96124.28;;;25.82;55.04
81025;BME280;70500;50.292;6.666;2023-09-12T07:11:41;96119.72;;;25.84;54.96
81025;BME280;70500;50.292;6.666;2023-09-12T07:14:10;96117.72;;;25.85;54.91
81025;BME280;70500;50.292;6.666;2023-09-12T07:16:39;96124.50;;;25.84;54.89
81025;BME280;70500;50.292;6.666;2023-09-12T07:19:08;96137.75;;;25.85;54.86
81025;BME280;70500;50.292;6.666;2023-09-12T07:21:38;96127.25;;;25.84;55.00
81025;BME280;70500;50.292;6.666;2023-09-12T07:24:07;96126.19;;;25.87;54.89
81025;BME280;70500;50.292;6.666;2023-09-12T07:26:36;96115.91;;;25.87;54.87
81025;BME280;70500;50.292;6.666;2023-09-12T07:29:07;96125.66;;;25.88;54.97
81025;BME280;70500;50.292;6.666;2023-09-12T07:31:36;96114.63;;;25.88;54.79
81025;BME280;70500;50.292;6.666;2023-09-12T07:34:05;96106.38;;;25.88;54.96
81025;BME280;70500;50.292;6.666;2023-09-12T07:36:36;96110.59;;;25.89;54.64
81025;BME280;70500;50.292;6.666;2023-09-12T07:39:05;96112.09;;;25.90;54.80
81025;BME280;70500;50.292;6.666;2023-09-12T07:41:34;96112.84;;;25.91;54.90
81025;BME280;70500;50.292;6.666;2023-09-12T07:44:03;96105.31;;;25.91;54.89
81025;BME280;70500;50.292;6.666;2023-09-12T07:46:37;96107.53;;;25.93;54.67
81025;BME280;70500;50.292;6.666;2023-09-12T07:49:06;96107.00;;;25.94;54.86
81025;BME280;70500;50.292;6.666;2023-09-12T07:51:36;96105.00;;;25.95;54.76
81025;BME280;70500;50.292;6.666;2023-09-12T07:54:06;96107.75;;;25.95;55.06
81025;BME280;70500;50.292;6.666;2023-09-12T07:56:35;96103.72;;;25.96;54.59
81025;BME280;70500;50.292;6.666;2023-09-12T07:59:04;96106.69;;;25.98;54.78
81025;BME280;70500;50.292;6.666;2023-09-12T08:01:33;96094.91;;;25.97;54.80
81025;BME280;70500;50.292;6.666;2023-09-12T08:04:04;96105.59;;;26.01;54.54
81025;BME280;70500;50.292;6.666;2023-09-12T08:06:33;96112.59;;;26.02;54.58
81025;BME280;70500;50.292;6.666;2023-09-12T08:09:22;96105.81;;;26.03;54.49
81025;BME280;70500;50.292;6.666;2023-09-12T08:11:51;96112.81;;;26.04;54.53
81025;BME280;70500;50.292;6.666;2023-09-12T08:14:20;96115.78;;;26.06;54.55
81025;BME280;70500;50.292;6.666;2023-09-12T08:16:49;96113.78;;;26.06;54.45
81025;BME280;70500;50.292;6.666;2023-09-12T08:19:20;96123.00;;;26.09;54.51
81025;BME280;70500;50.292;6.666;2023-09-12T08:21:49;96116.75;;;26.08;54.58
81025;BME280;70500;50.292;6.666;2023-09-12T08:24:18;96118.22;;;26.10;54.46
81025;BME280;70500;50.292;6.666;2023-09-12T08:26:48;96123.97;;;26.12;54.50
81025;BME280;70500;50.292;6.666;2023-09-12T08:29:17;96119.19;;;26.12;54.56
81025;BME280;70500;50.292;6.666;2023-09-12T08:31:46;96124.16;;;26.14;54.26
81025;BME280;70500;50.292;6.666;2023-09-12T08:34:15;96125.13;;;26.16;54.11
81025;BME280;70500;50.292;6.666;2023-09-12T08:36:46;96125.88;;;26.17;54.26
81025;BME280;70500;50.292;6.666;2023-09-12T08:39:18;96121.09;;;26.17;54.15
81025;BME280;70500;50.292;6.666;2023-09-12T08:41:47;96128.84;;;26.19;54.36
81025;BME280;70500;50.292;6.666;2023-09-12T08:44:18;96118.53;;;26.19;54.09
81025;BME280;70500;50.292;6.666;2023-09-12T08:46:48;96110.97;;;26.20;54.14
81025;BME280;70500;50.292;6.666;2023-09-12T08:49:17;96117.25;;;26.20;54.50
81025;BME280;70500;50.292;6.666;2023-09-12T08:51:48;96113.22;;;26.21;54.16
81025;BME280;70500;50.292;6.666;2023-09-12T08:54:17;96111.19;;;26.22;54.37
81025;BME280;70500;50.292;6.666;2023-09-12T08:56:47;96107.19;;;26.23;54.29
81025;BME280;70500;50.292;6.666;2023-09-12T08:59:17;96116.94;;;26.24;54.35
81025;BME280;70500;50.292;6.666;2023-09-12T09:01:46;96112.91;;;26.25;54.32
81025;BME280;70500;50.292;6.666;2023-09-12T09:04:19;96117.59;;;26.30;54.05
81025;BME280;70500;50.292;6.666;2023-09-12T09:06:51;96121.84;;;26.31;54.07
81025;BME280;70500;50.292;6.666;2023-09-12T09:09:31;96114.50;;;26.33;53.75
81025;BME280;70500;50.292;6.666;2023-09-12T09:12:01;96118.22;;;26.36;53.75
81025;BME280;70500;50.292;6.666;2023-09-12T09:14:30;96119.69;;;26.37;53.78
81025;BME280;70500;50.292;6.666;2023-09-12T09:17:00;96131.47;;;26.37;53.99
81025;BME280;70500;50.292;6.666;2023-09-12T09:19:41;96123.94;;;26.38;53.88
81025;BME280;70500;50.292;6.666;2023-09-12T09:22:10;96137.94;;;26.40;53.64
81025;BME280;70500;50.292;6.666;2023-09-12T09:24:41;96128.38;;;26.41;53.47
81025;BME280;70500;50.292;6.666;2023-09-12T09:27:10;96126.34;;;26.41;53.67
81025;BME280;70500;50.292;6.666;2023-09-12T09:29:46;96123.06;;;26.43;53.45
81025;BME280;70500;50.292;6.666;2023-09-12T09:32:17;96128.06;;;26.45;53.73
81025;BME280;70500;50.292;6.666;2023-09-12T09:34:52;96132.28;;;26.46;53.74
81025;BME280;70500;50.292;6.666;2023-09-12T09:37:21;96126.78;;;26.46;53.70
81025;BME280;70500;50.292;6.666;2023-09-12T09:39:52;96136.75;;;26.49;53.88
81025;BME280;70500;50.292;6.666;2023-09-12T09:42:23;96138.25;;;26.50;53.66
81025;BME280;70500;50.292;6.666;2023-09-12T09:44:52;96143.97;;;26.52;53.77
81025;BME280;70500;50.292;6.666;2023-09-12T09:47:22;96153.72;;;26.53;53.73
81025;BME280;70500;50.292;6.666;2023-09-12T09:49:51;96146.19;;;26.53;53.37
81025;BME280;70500;50.292;6.666;2023-09-12T09:52:26;96140.69;;;26.53;53.94
81025;BME280;70500;50.292;6.666;2023-09-12T09:54:57;96143.44;;;26.53;53.81
81025;BME280;70500;50.292;6.666;2023-09-12T09:57:26;96134.41;;;26.53;54.00
81025;BME280;70500;50.292;6.666;2023-09-12T09:59:55;96139.94;;;26.53;53.56
81025;BME280;70500;50.292;6.666;2023-09-12T10:02:25;96138.97;;;26.50;53.79
81025;BME280;70500;50.292;6.666;2023-09-12T10:04:57;96135.69;;;26.52;53.33
81025;BME280;70500;50.292;6.666;2023-09-12T10:07:32;96137.69;;;26.51;53.66
81025;BME280;70500;50.292;6.666;2023-09-12T10:10:04;96136.44;;;26.52;53.78
81025;BME280;70500;50.292;6.666;2023-09-12T10:12:35;96130.91;;;26.52;53.84
81025;BME280;70500;50.292;6.666;2023-09-12T10:15:08;96136.44;;;26.52;53.58
81025;BME280;70500;50.292;6.666;2023-09-12T10:17:42;96130.16;;;26.52;53.69
81025;BME280;70500;50.292;6.666;2023-09-12T10:20:18;96124.13;;;26.53;53.30
81025;BME280;70500;50.292;6.666;2023-09-12T10:22:55;96115.09;;;26.53;53.75
81025;BME280;70500;50.292;6.666;2023-09-12T10:25:30;96118.06;;;26.55;53.62
81025;BME280;70500;50.292;6.666;2023-09-12T10:28:00;96116.78;;;26.56;53.55
81025;BME280;70500;50.292;6.666;2023-09-12T10:30:29;96117.00;;;26.58;53.72
81025;BME280;70500;50.292;6.666;2023-09-12T10:33:02;96117.72;;;26.58;53.77
81025;BME280;70500;50.292;6.666;2023-09-12T10:35:32;96123.97;;;26.59;53.40
81025;BME280;70500;50.292;6.666;2023-09-12T10:38:03;96126.72;;;26.59;53.41
81025;BME280;70500;50.292;6.666;2023-09-12T10:40:36;96121.22;;;26.59;53.22
81025;BME280;70500;50.292;6.666;2023-09-12T10:43:12;96125.47;;;26.60;53.51
81025;BME280;70500;50.292;6.666;2023-09-12T10:45:43;96124.19;;;26.61;53.86
81025;BME280;70500;50.292;6.666;2023-09-12T10:48:13;96113.88;;;26.61;53.87
81025;BME280;70500;50.292;6.666;2023-09-12T10:50:44;96109.63;;;26.60;53.29
81025;BME280;70500;50.292;6.666;2023-09-12T10:53:15;96111.13;;;26.61;53.34
81025;BME280;70500;50.292;6.666;2023-09-12T10:55:58;96108.34;;;26.61;53.60
81025;BME280;70500;50.292;6.666;2023-09-12T10:58:27;96114.63;;;26.62;53.52
81025;BME280;70500;50.292;6.666;2023-09-12T11:01:23;96120.88;;;26.62;53.27
81025;BME280;70500;50.292;6.666;2023-09-12T11:03:54;96116.84;;;26.63;53.22
81025;BME280;70500;50.292;6.666;2023-09-12T11:06:28;96112.59;;;26.62;53.21
81025;BME280;70500;50.292;6.666;2023-09-12T11:09:18;96116.09;;;26.63;53.32
81025;BME280;70500;50.292;6.666;2023-09-12T11:11:55;96116.09;;;26.63;53.88
81025;BME280;70500;50.292;6.666;2023-09-12T11:14:24;96109.09;;;26.62;53.27
81025;BME280;70500;50.292;6.666;2023-09-12T11:17:20;96110.38;;;26.61;53.77
81025;BME280;70500;50.292;6.666;2023-09-12T11:19:51;96118.66;;;26.61;53.96
81025;BME280;70500;50.292;6.666;2023-09-12T11:22:23;96110.38;;;26.61;53.77
81025;BME280;70500;50.292;6.666;2023-09-12T11:24:54;96109.63;;;26.60;53.13
81025;BME280;70500;50.292;6.666;2023-09-12T11:27:31;96107.63;;;26.61;53.46
81025;BME280;70500;50.292;6.666;2023-09-12T11:30:06;96114.41;;;26.60;53.57
81025;BME280;70500;50.292;6.666;2023-09-12T11:32:36;96119.94;;;26.60;53.60
81025;BME280;70500;50.292;6.666;2023-09-12T11:35:07;96117.72;;;26.58;53.71
81025;BME280;70500;50.292;6.666;2023-09-12T11:37:37;96121.94;;;26.59;53.89
81025;BME280;70500;50.292;6.666;2023-09-12T11:40:18;96116.44;;;26.59;53.26
81025;BME280;70500;50.292;6.666;2023-09-12T11:42:52;96126.72;;;26.59;53.37
81025;BME280;70500;50.292;6.666;2023-09-12T11:45:22;96121.94;;;26.59;53.50
81025;BME280;70500;50.292;6.666;2023-09-12T11:47:51;96127.47;;;26.59;53.80
81025;BME280;70500;50.292;6.666;2023-09-12T11:50:28;96127.47;;;26.59;53.47
81025;BME280;70500;50.292;6.666;2023-09-12T11:53:01;96121.94;;;26.59;53.32
81025;BME280;70500;50.292;6.666;2023-09-12T11:55:32;96125.47;;;26.60;53.80
81025;BME280;70500;50.292;6.666;2023-09-12T11:58:03;96121.94;;;26.59;53.83
81025;BME280;70500;50.292;6.666;2023-09-12T12:00:33;96119.94;;;26.60;53.57
81025;BME280;70500;50.292;6.666;2023-09-12T12:03:03;96124.19;;;26.61;53.69
81025;BME280;70500;50.292;6.666;2023-09-12T12:05:34;96119.94;;;26.60;53.24
81025;BME280;70500;50.292;6.666;2023-09-12T12:08:06;96117.91;;;26.60;53.24
81025;BME280;70500;50.292;6.666;2023-09-12T12:10:56;96117.91;;;26.60;53.42
81025;BME280;70500;50.292;6.666;2023-09-12T12:13:28;96110.38;;;26.61;53.60
81025;BME280;70500;50.292;6.666;2023-09-12T12:15:58;96107.63;;;26.61;53.58
81025;BME280;70500;50.292;6.666;2023-09-12T12:18:27;96109.63;;;26.60;53.49
81025;BME280;70500;50.292;6.666;2023-09-12T12:20:56;96113.88;;;26.61;53.29
81025;BME280;70500;50.292;6.666;2023-09-12T12:23:26;96105.59;;;26.61;53.53
81025;BME280;70500;50.292;6.666;2023-09-12T12:25:55;96117.38;;;26.62;53.46
81025;BME280;70500;50.292;6.666;2023-09-12T12:28:24;96110.38;;;26.61;53.76
81025;BME280;70500;50.292;6.666;2023-09-12T12:30:55;96117.38;;;26.62;53.58
81025;BME280;70500;50.292;6.666;2023-09-12T12:33:24;96118.66;;;26.61;53.44
81025;BME280;70500;50.292;6.666;2023-09-12T12:36:15;96129.16;;;26.62;53.63
81025;BME280;70500;50.292;6.666;2023-09-12T12:38:47;96125.13;;;26.63;53.84
81025;BME280;70500;50.292;6.666;2023-09-12T12:41:24;96120.16;;;26.62;53.14
81025;BME280;70500;50.292;6.666;2023-09-12T12:43:57;96111.31;;;26.63;53.35
81025;BME280;70500;50.292;6.666;2023-09-12T12:46:32;96121.63;;;26.63;53.45
81025;BME280;70500;50.292;6.666;2023-09-12T12:49:01;96113.34;;;26.63;53.38
81025;BME280;70500;50.292;6.666;2023-09-12T12:51:31;96112.59;;;26.62;53.56
81025;BME280;70500;50.292;6.666;2023-09-12T12:54:05;96109.09;;;26.62;53.69
81025;BME280;70500;50.292;6.666;2023-09-12T12:56:34;96113.34;;;26.63;53.73
81025;BME280;70500;50.292;6.666;2023-09-12T12:59:05;96106.34;;;26.62;53.33
81025;BME280;70500;50.292;6.666;2023-09-12T13:01:38;96098.06;;;26.62;53.98
81025;BME280;70500;50.292;6.666;2023-09-12T13:04:08;96105.06;;;26.63;53.74
81025;BME280;70500;50.292;6.666;2023-09-12T13:06:38;96103.78;;;26.64;53.76
81025;BME280;70500;50.292;6.666;2023-09-12T13:09:09;96096.78;;;26.63;53.67
81025;BME280;70500;50.292;6.666;2023-09-12T13:11:39;96094.75;;;26.63;53.54
81025;BME280;70500;50.292;6.666;2023-09-12T13:14:08;96090.72;;;26.64;53.43
81025;BME280;70500;50.292;6.666;2023-09-12T13:16:41;96083.72;;;26.63;53.59
81025;BME280;70500;50.292;6.666;2023-09-12T13:19:10;96079.69;;;26.64;53.11